Time,TemperatureF,DewpointF,PressureIn,WindDirection,WindDirectionDegrees,WindSpeedMPH,WindSpeedGustMPH,Humidity,HourlyPrecipIn,Conditions,Clouds,dailyrainin,SoftwareType,DateUTC
2013-03-07 00:19:00,29.4,25.0,30.16,SSE,166,1.0,2.0,82,0.00,,,0.00,weatherlink.com 1.10,2013-03-07 05:19:00,
2013-03-07 00:34:00,29.2,25.0,30.17,SE,128,1.0,3.0,83,0.00,,,0.00,weatherlink.com 1.10,2013-03-07 05:34:00,
2013-03-07 00:49:00,29.0,25.0,30.17,WSW,252,0.0,1.0,83,0.00,,,0.00,weatherlink.com 1.10,2013-03-07 05:49:00,
2013-03-07 01:04:00,28.9,24.0,30.16,East,89,0.0,2.0,83,0.00,,,0.00,weatherlink.com 1.10,2013-03-07 06:04:00,
2013-03-07 01:19:00,28.4,24.0,30.16,ENE,59,0.0,1.0,84,0.00,,,0.00,weatherlink.com 1.10,2013-03-07 06:19:00,
2013-03-07 01:34:00,28.9,24.0,30.16,NE,54,0.0,5.0,83,0.00,,,0.00,weatherlink.com 1.10,2013-03-07 06:34:00,
2013-03-07 01:49:00,28.8,24.0,30.16,West,266,2.0,2.0,83,0.00,,,0.00,weatherlink.com 1.10,2013-03-07 06:49:00,
2013-03-07 02:04:00,28.5,24.0,30.16,West,275,0.0,1.0,84,0.00,,,0.00,weatherlink.com 1.10,2013-03-07 07:04:00,
2013-03-07 02:19:00,27.5,24.0,30.17,SW,215,0.0,1.0,86,0.00,,,0.00,weatherlink.com 1.10,2013-03-07 07:19:00,
2013-03-07 02:34:00,26.9,24.0,30.17,SW,214,0.0,1.0,87,0.00,,,0.00,weatherlink.com 1.10,2013-03-07 07:34:00,
2013-03-07 02:49:00,26.3,24.0,30.17,SW,215,0.0,1.0,89,0.00,,,0.00,weatherlink.com 1.10,2013-03-07 07:49:00,
2013-03-07 03:04:00,25.9,23.0,30.18,SW,215,0.0,1.0,89,0.00,,,0.00,weatherlink.com 1.10,2013-03-07 08:04:00,
2013-03-07 03:19:00,25.7,23.0,30.17,SW,215,0.0,1.0,90,0.00,,,0.00,weatherlink.com 1.10,2013-03-07 08:19:00,
2013-03-07 03:34:00,25.9,23.0,30.17,West,266,0.0,1.0,90,0.00,,,0.00,weatherlink.com 1.10,2013-03-07 08:34:00,
2013-03-07 03:49:00,25.4,23.0,30.18,West,265,0.0,0.0,90,0.00,,,0.00,weatherlink.com 1.10,2013-03-07 08:49:00,
2013-03-07 04:04:00,25.1,23.0,30.19,West,265,0.0,0.0,91,0.00,,,0.00,weatherlink.com 1.10,2013-03-07 09:04:00,
2013-03-07 04:19:00,25.0,23.0,30.20,West,266,0.0,1.0,92,0.00,,,0.00,weatherlink.com 1.10,2013-03-07 09:19:00,
2013-03-07 04:34:00,24.3,22.0,30.19,West,265,0.0,0.0,91,0.00,,,0.00,weatherlink.com 1.10,2013-03-07 09:34:00,
2013-03-07 04:49:00,24.0,22.0,30.20,West,265,0.0,0.0,92,0.00,,,0.00,weatherlink.com 1.10,2013-03-07 09:49:00,
2013-03-07 05:04:00,23.6,22.0,30.20,West,266,0.0,0.0,93,0.00,,,0.00,weatherlink.com 1.10,2013-03-07 10:04:00,
2013-03-07 05:19:00,23.4,22.0,30.21,West,265,0.0,0.0,93,0.00,,,0.00,weatherlink.com 1.10,2013-03-07 10:19:00,
2013-03-07 05:34:00,23.0,21.0,30.23,West,266,0.0,1.0,93,0.00,,,0.00,weatherlink.com 1.10,2013-03-07 10:34:00,
2013-03-07 05:49:00,22.8,21.0,30.23,West,266,0.0,0.0,93,0.00,,,0.00,weatherlink.com 1.10,2013-03-07 10:49:00,
2013-03-07 06:04:00,22.5,21.0,30.23,West,266,0.0,0.0,94,0.00,,,0.00,weatherlink.com 1.10,2013-03-07 11:04:00,
2013-03-07 06:19:00,22.3,21.0,30.23,West,265,0.0,0.0,94,0.00,,,0.00,weatherlink.com 1.10,2013-03-07 11:19:00,
2013-03-07 06:34:00,22.1,21.0,30.23,West,266,0.0,0.0,94,0.00,,,0.00,weatherlink.com 1.10,2013-03-07 11:34:00,
2013-03-07 06:49:00,22.2,21.0,30.24,West,266,0.0,0.0,95,0.00,,,0.00,weatherlink.com 1.10,2013-03-07 11:49:00,
2013-03-07 07:04:00,22.2,21.0,30.24,West,266,0.0,0.0,94,0.00,,,0.00,weatherlink.com 1.10,2013-03-07 12:04:00,
2013-03-07 07:19:00,22.2,21.0,30.24,West,278,1.0,1.0,94,0.00,,,0.00,weatherlink.com 1.10,2013-03-07 12:19:00,
2013-03-07 07:34:00,22.7,21.0,30.24,West,278,0.0,0.0,94,0.00,,,0.00,weatherlink.com 1.10,2013-03-07 12:34:00,
2013-03-07 07:49:00,23.8,23.0,30.24,West,278,0.0,1.0,95,0.00,,,0.00,weatherlink.com 1.10,2013-03-07 12:49:00,
2013-03-07 08:04:00,26.1,24.0,30.25,West,278,0.0,0.0,93,0.00,,,0.00,weatherlink.com 1.10,2013-03-07 13:04:00,
2013-03-07 08:20:00,26.6,25.0,30.26,WNW,288,0.0,0.0,92,0.00,,,0.00,weatherlink.com 1.10,2013-03-07 13:20:00,
2013-03-07 08:35:00,27.5,25.0,30.27,WNW,294,0.0,1.0,91,0.00,,,0.00,weatherlink.com 1.10,2013-03-07 13:35:00,
2013-03-07 08:50:00,28.5,26.0,30.28,SSW,194,0.0,1.0,89,0.00,,,0.00,weatherlink.com 1.10,2013-03-07 13:50:00,
2013-03-07 09:05:00,31.7,28.0,30.27,SE,129,0.0,1.0,85,0.00,,,0.00,weatherlink.com 1.10,2013-03-07 14:05:00,
2013-03-07 09:20:00,33.5,27.0,30.27,SE,139,0.0,2.0,78,0.00,,,0.00,weatherlink.com 1.10,2013-03-07 14:20:00,
2013-03-07 09:35:00,34.8,27.0,30.27,North,11,2.0,4.0,74,0.00,,,0.00,weatherlink.com 1.10,2013-03-07 14:35:00,
2013-03-07 09:50:00,36.0,27.0,30.27,SE,139,1.0,6.0,69,0.00,,,0.00,weatherlink.com 1.10,2013-03-07 14:50:00,
2013-03-07 10:05:00,37.5,30.0,30.27,East,91,0.0,4.0,73,0.00,,,0.00,weatherlink.com 1.10,2013-03-07 15:05:00,
2013-03-07 10:20:00,36.9,27.0,30.27,ENE,73,2.0,4.0,67,0.00,,,0.00,weatherlink.com 1.10,2013-03-07 15:20:00,
2013-03-07 10:50:00,38.5,28.0,30.26,ENE,67,2.0,4.0,67,0.00,,,0.00,weatherlink.com 1.10,2013-03-07 15:50:00,
2013-03-07 11:05:00,39.6,29.0,30.26,SE,131,4.0,7.0,67,0.00,,,0.00,weatherlink.com 1.10,2013-03-07 16:05:00,
2013-03-07 11:20:00,40.8,27.0,30.26,SSE,163,1.0,5.0,58,0.00,,,0.00,weatherlink.com 1.10,2013-03-07 16:20:00,
2013-03-07 11:35:00,42.4,30.0,30.26,NNE,31,2.0,5.0,61,0.00,,,0.00,weatherlink.com 1.10,2013-03-07 16:35:00,
2013-03-07 11:50:00,43.2,28.0,30.25,ENE,63,1.0,4.0,55,0.00,,,0.00,weatherlink.com 1.10,2013-03-07 16:50:00,
2013-03-07 12:05:00,43.6,29.0,30.25,NNW,344,1.0,6.0,57,0.00,,,0.00,weatherlink.com 1.10,2013-03-07 17:05:00,
2013-03-07 12:20:00,45.4,29.0,30.25,NE,44,1.0,4.0,52,0.00,,,0.00,weatherlink.com 1.10,2013-03-07 17:20:00,
2013-03-07 12:35:00,46.2,29.0,30.24,South,179,2.0,4.0,51,0.00,,,0.00,weatherlink.com 1.10,2013-03-07 17:35:00,
2013-03-07 12:50:00,46.2,30.0,30.24,SW,232,1.0,4.0,53,0.00,,,0.00,weatherlink.com 1.10,2013-03-07 17:50:00,
2013-03-07 13:05:00,47.2,30.0,30.23,East,90,2.0,6.0,51,0.00,,,0.00,weatherlink.com 1.10,2013-03-07 18:05:00,
2013-03-07 13:20:00,47.4,26.0,30.22,NE,43,3.0,6.0,43,0.00,,,0.00,weatherlink.com 1.10,2013-03-07 18:20:00,
2013-03-07 13:36:00,48.5,28.0,30.21,SE,136,2.0,6.0,45,0.00,,,0.00,weatherlink.com 1.10,2013-03-07 18:36:00,
2013-03-07 13:51:00,50.2,29.0,30.20,SSE,153,4.0,4.0,45,0.00,,,0.00,weatherlink.com 1.10,2013-03-07 18:51:00,
2013-03-07 14:06:00,50.5,30.0,30.20,ESE,117,2.0,8.0,45,0.00,,,0.00,weatherlink.com 1.10,2013-03-07 19:06:00,
2013-03-07 14:21:00,51.6,30.0,30.20,SE,125,0.0,5.0,43,0.00,,,0.00,weatherlink.com 1.10,2013-03-07 19:21:00,
2013-03-07 14:36:00,51.7,30.0,30.19,SE,131,4.0,5.0,43,0.00,,,0.00,weatherlink.com 1.10,2013-03-07 19:36:00,
2013-03-07 14:51:00,51.4,31.0,30.19,NE,50,1.0,5.0,46,0.00,,,0.00,weatherlink.com 1.10,2013-03-07 19:51:00,
2013-03-07 15:06:00,50.8,31.0,30.20,SW,214,0.0,6.0,46,0.00,,,0.00,weatherlink.com 1.10,2013-03-07 20:06:00,
2013-03-07 15:21:00,50.5,31.0,30.20,South,184,1.0,7.0,47,0.00,,,0.00,weatherlink.com 1.10,2013-03-07 20:21:00,
2013-03-07 15:36:00,50.0,30.0,30.20,East,94,1.0,6.0,47,0.00,,,0.00,weatherlink.com 1.10,2013-03-07 20:36:00,
2013-03-07 15:51:00,49.7,31.0,30.21,NE,34,1.0,5.0,49,0.00,,,0.00,weatherlink.com 1.10,2013-03-07 20:51:00,
2013-03-07 16:06:00,48.8,30.0,30.21,SE,141,1.0,8.0,48,0.00,,,0.00,weatherlink.com 1.10,2013-03-07 21:06:00,
2013-03-07 16:21:00,48.5,30.0,30.21,ENE,68,0.0,8.0,49,0.00,,,0.00,weatherlink.com 1.10,2013-03-07 21:21:00,
2013-03-07 16:36:00,49.0,31.0,30.21,NE,50,1.0,7.0,50,0.00,,,0.00,weatherlink.com 1.10,2013-03-07 21:36:00,
2013-03-07 16:51:00,49.3,31.0,30.21,ESE,121,1.0,3.0,49,0.00,,,0.00,weatherlink.com 1.10,2013-03-07 21:51:00,
2013-03-07 17:06:00,48.1,31.0,30.22,NNE,15,4.0,5.0,51,0.00,,,0.00,weatherlink.com 1.10,2013-03-07 22:06:00,
2013-03-07 17:21:00,46.6,31.0,30.23,WSW,255,0.0,4.0,54,0.00,,,0.00,weatherlink.com 1.10,2013-03-07 22:21:00,
2013-03-07 17:36:00,45.1,29.0,30.23,East,101,1.0,8.0,54,0.00,,,0.00,weatherlink.com 1.10,2013-03-07 22:36:00,
2013-03-07 17:51:00,43.8,30.0,30.23,ENE,77,0.0,2.0,58,0.00,,,0.00,weatherlink.com 1.10,2013-03-07 22:51:00,
2013-03-07 18:06:00,42.5,29.0,30.24,NNE,15,0.0,3.0,59,0.00,,,0.00,weatherlink.com 1.10,2013-03-07 23:06:00,
2013-03-07 18:21:00,40.7,28.0,30.25,NNE,18,1.0,3.0,62,0.00,,,0.00,weatherlink.com 1.10,2013-03-07 23:21:00,
2013-03-07 18:36:00,39.2,28.0,30.26,NNE,32,0.0,5.0,64,0.00,,,0.00,weatherlink.com 1.10,2013-03-07 23:36:00,
2013-03-07 18:52:00,37.7,28.0,30.27,SW,231,0.0,5.0,67,0.00,,,0.00,weatherlink.com 1.10,2013-03-07 23:52:00,
2013-03-07 19:06:00,36.8,27.0,30.27,NE,36,0.0,2.0,69,0.00,,,0.00,weatherlink.com 1.10,2013-03-08 00:06:00,
2013-03-07 19:21:00,35.7,27.0,30.28,NNE,26,0.0,2.0,71,0.00,,,0.00,weatherlink.com 1.10,2013-03-08 00:21:00,
2013-03-07 19:36:00,34.7,27.0,30.28,North,352,0.0,2.0,73,0.00,,,0.00,weatherlink.com 1.10,2013-03-08 00:36:00,
2013-03-07 19:51:00,33.9,26.0,30.28,NE,45,1.0,2.0,74,0.00,,,0.00,weatherlink.com 1.10,2013-03-08 00:51:00,
2013-03-07 20:06:00,33.3,27.0,30.29,NNE,15,1.0,1.0,76,0.00,,,0.00,weatherlink.com 1.10,2013-03-08 01:06:00,
2013-03-07 20:21:00,32.7,26.0,30.30,ENE,58,0.0,2.0,77,0.00,,,0.00,weatherlink.com 1.10,2013-03-08 01:21:00,
2013-03-07 20:36:00,32.1,26.0,30.30,NNE,29,0.0,1.0,78,0.00,,,0.00,weatherlink.com 1.10,2013-03-08 01:36:00,
2013-03-07 21:06:00,30.9,26.0,30.31,East,96,0.0,1.0,81,0.00,,,0.00,weatherlink.com 1.10,2013-03-08 02:06:00,
2013-03-07 21:21:00,30.5,25.0,30.31,SE,139,0.0,1.0,81,0.00,,,0.00,weatherlink.com 1.10,2013-03-08 02:21:00,
2013-03-07 21:36:00,30.0,25.0,30.31,South,188,0.0,1.0,83,0.00,,,0.00,weatherlink.com 1.10,2013-03-08 02:36:00,
2013-03-07 21:51:00,29.7,25.0,30.31,NNE,14,0.0,1.0,83,0.00,,,0.00,weatherlink.com 1.10,2013-03-08 02:51:00,
2013-03-07 22:06:00,29.5,25.0,30.31,NNE,18,0.0,1.0,84,0.00,,,0.00,weatherlink.com 1.10,2013-03-08 03:06:00,
2013-03-07 22:21:00,29.2,25.0,30.31,NNE,12,0.0,1.0,85,0.00,,,0.00,weatherlink.com 1.10,2013-03-08 03:21:00,
2013-03-07 22:36:00,29.1,25.0,30.32,NNE,13,0.0,1.0,85,0.00,,,0.00,weatherlink.com 1.10,2013-03-08 03:36:00,
2013-03-07 22:51:00,28.8,25.0,30.31,North,359,0.0,1.0,86,0.00,,,0.00,weatherlink.com 1.10,2013-03-08 03:51:00,
2013-03-07 23:06:00,28.5,25.0,30.31,North,359,0.0,0.0,87,0.00,,,0.00,weatherlink.com 1.10,2013-03-08 04:06:00,
2013-03-07 23:21:00,27.9,25.0,30.32,NNW,338,0.0,0.0,87,0.00,,,0.00,weatherlink.com 1.10,2013-03-08 04:21:00,
2013-03-07 23:36:00,27.5,25.0,30.31,NNW,339,0.0,0.0,89,0.00,,,0.00,weatherlink.com 1.10,2013-03-08 04:36:00,
2013-03-07 23:51:00,27.4,25.0,30.31,NW,304,0.0,0.0,89,0.00,,,0.00,weatherlink.com 1.10,2013-03-08 04:51:00,